Thunder radar more information blitzortung!


Radar de pluja more information rain snow radar


Visita la nostra xarxa de llocs de meteo:

Template documentation
and downloads

And another site



No particular awareness of the weather is required.    There are no Weather-warnings

Pagina Historial Weather Underground text

Diari Resum Juliol 19, 2017 Unitats:  Tant    Imperial   Mètric
« Previous Dia
SegĂźent Dia »
Diari Setmana Mensual Anual Personalitzada
  Maxima: Minima: Media:
Temperatura: 89.1 °F /  31.7 °C 69.1 °F /  20.6 °C 80.8 °F /  27.1 °C
Punt de rosada: 66.6 °F /  19.2 °C 54.7 °F /  12.6 °C 62.1 °F /  16.7 °C
Humitat: 82 % 34 % 55 %
Wind Speed: 16.1 mph /  25.9 km/h - 5.8 mph /  9.4 km/h
RĂ fegues de vent: 16.1 mph /  25.9 km/h - -
Vent:- - East
Pression baro: 30 in /  1014.8 hPa 29.8 in /  1009.0 hPa -
Precipitacions: 0 in /  0.0 mm    
Historical Graphs
 
 
Dades de taula per Juliol 19, 2017
Temps Temperatura Punt de rosada Pression baro Vent Wind Speed RĂ fegues de vent Humitat Rainfall Rate (Hourly)
00:00 74.7 °F /  23.7 °C 61.7 °F /  16.5 °C 30 in /  1014.8 hPa SW 1 mph /  1.6 km/h 3 mph /  4.8 km/h 64 % 0 in /  0.0 mm
00:05 74.7 °F /  23.7 °C 62.1 °F /  16.7 °C 30 in /  1014.8 hPa SW 2 mph /  3.2 km/h 4 mph /  6.4 km/h 65 % 0 in /  0.0 mm
00:15 70 °F /  21.1 °C 62.4 °F /  16.9 °C 29.9 in /  1011.7 hPa SW 2 mph /  3.2 km/h 2 mph /  3.2 km/h 77 % 0 in /  0.0 mm
00:25 69.6 °F /  20.9 °C 62.8 °F /  17.1 °C 29.9 in /  1011.7 hPa SW 1 mph /  1.6 km/h 2 mph /  3.2 km/h 79 % 0 in /  0.0 mm
00:35 69.6 °F /  20.9 °C 62.8 °F /  17.1 °C 29.9 in /  1011.7 hPa WSW 1 mph /  1.6 km/h 2 mph /  3.2 km/h 79 % 0 in /  0.0 mm
00:45 69.6 °F /  20.9 °C 63.1 °F /  17.3 °C 29.9 in /  1011.7 hPa WSW 1 mph /  1.6 km/h 2 mph /  3.2 km/h 80 % 0 in /  0.0 mm
00:55 69.6 °F /  20.9 °C 63.5 °F /  17.5 °C 29.9 in /  1011.7 hPa Calm   1 mph /  1.6 km/h 81 % 0 in /  0.0 mm
01:05 69.8 °F /  21.0 °C 63.3 °F /  17.4 °C 29.9 in /  1011.7 hPa WSW 2 mph /  3.2 km/h 2 mph /  3.2 km/h 80 % 0 in /  0.0 mm
01:15 69.8 °F /  21.0 °C 63.7 °F /  17.6 °C 29.9 in /  1011.7 hPa Calm   2 mph /  3.2 km/h 81 % 0 in /  0.0 mm
01:25 69.6 °F /  20.9 °C 63.9 °F /  17.7 °C 29.9 in /  1012.8 hPa Calm     82 % 0 in /  0.0 mm
01:35 69.6 °F /  20.9 °C 63.9 °F /  17.7 °C 29.9 in /  1012.8 hPa Calm   1 mph /  1.6 km/h 82 % 0 in /  0.0 mm
01:45 69.4 °F /  20.8 °C 63.3 °F /  17.4 °C 29.9 in /  1013.8 hPa Calm   2 mph /  3.2 km/h 81 % 0 in /  0.0 mm
01:55 69.1 °F /  20.6 °C 62.6 °F /  17.0 °C 29.9 in /  1013.8 hPa WSW 3 mph /  4.8 km/h 3 mph /  4.8 km/h 80 % 0 in /  0.0 mm
02:05 69.3 °F /  20.7 °C 62.1 °F /  16.7 °C 29.9 in /  1013.8 hPa WSW 1 mph /  1.6 km/h 4 mph /  6.4 km/h 78 % 0 in /  0.0 mm
02:15 69.6 °F /  20.9 °C 62.4 °F /  16.9 °C 29.9 in /  1013.8 hPa WSW 1 mph /  1.6 km/h 2 mph /  3.2 km/h 78 % 0 in /  0.0 mm
02:25 70.3 °F /  21.3 °C 62.4 °F /  16.9 °C 30 in /  1014.8 hPa West 1 mph /  1.6 km/h 3 mph /  4.8 km/h 76 % 0 in /  0.0 mm
02:35 71.2 °F /  21.8 °C 63 °F /  17.2 °C 30 in /  1014.8 hPa Calm   1 mph /  1.6 km/h 75 % 0 in /  0.0 mm
02:45 71.8 °F /  22.1 °C 62.8 °F /  17.1 °C 29.9 in /  1013.8 hPa Calm   2 mph /  3.2 km/h 73 % 0 in /  0.0 mm
02:55 72 °F /  22.2 °C 62.8 °F /  17.1 °C 29.9 in /  1013.8 hPa NE 2 mph /  3.2 km/h 3 mph /  4.8 km/h 73 % 0 in /  0.0 mm
03:05 71.6 °F /  22.0 °C 62.1 °F /  16.7 °C 29.9 in /  1013.8 hPa NNE 2 mph /  3.2 km/h 4 mph /  6.4 km/h 72 % 0 in /  0.0 mm
03:15 71.6 °F /  22.0 °C 62.4 °F /  16.9 °C 29.9 in /  1013.8 hPa North 1 mph /  1.6 km/h 2 mph /  3.2 km/h 73 % 0 in /  0.0 mm
03:25 71.4 °F /  21.9 °C 62.8 °F /  17.1 °C 29.9 in /  1013.8 hPa West 1 mph /  1.6 km/h 2 mph /  3.2 km/h 74 % 0 in /  0.0 mm
03:35 72.1 °F /  22.3 °C 62.2 °F /  16.8 °C 29.9 in /  1013.8 hPa WNW 1 mph /  1.6 km/h 1 mph /  1.6 km/h 71 % 0 in /  0.0 mm
03:45 73 °F /  22.8 °C 62.8 °F /  17.1 °C 29.9 in /  1012.8 hPa NNE 1 mph /  1.6 km/h 3 mph /  4.8 km/h 70 % 0 in /  0.0 mm
03:55 75.2 °F /  24.0 °C 63.5 °F /  17.5 °C 29.9 in /  1013.8 hPa NE 1 mph /  1.6 km/h 4 mph /  6.4 km/h 67 % 0 in /  0.0 mm
04:05 76.1 °F /  24.5 °C 63.5 °F /  17.5 °C 29.9 in /  1013.8 hPa NE 2 mph /  3.2 km/h 4 mph /  6.4 km/h 65 % 0 in /  0.0 mm
04:15 77.9 °F /  25.5 °C 64.2 °F /  17.9 °C 29.9 in /  1013.8 hPa NE 2 mph /  3.2 km/h 4 mph /  6.4 km/h 63 % 0 in /  0.0 mm
04:25 78.6 °F /  25.9 °C 63.7 °F /  17.6 °C 29.9 in /  1012.8 hPa NE 2 mph /  3.2 km/h 6 mph /  9.7 km/h 60 % 0 in /  0.0 mm
04:35 79.5 °F /  26.4 °C 64.4 °F /  18.0 °C 29.9 in /  1012.8 hPa NNE 2 mph /  3.2 km/h 4 mph /  6.4 km/h 60 % 0 in /  0.0 mm
04:45 79.7 °F /  26.5 °C 63.1 °F /  17.3 °C 29.9 in /  1013.8 hPa NNE 3 mph /  4.8 km/h 6 mph /  9.7 km/h 57 % 0 in /  0.0 mm
04:55 81.3 °F /  27.4 °C 63.7 °F /  17.6 °C 29.9 in /  1013.8 hPa NNE 2 mph /  3.2 km/h 3 mph /  4.8 km/h 55 % 0 in /  0.0 mm
05:05 81.9 °F /  27.7 °C 62.4 °F /  16.9 °C 29.9 in /  1013.8 hPa NE 3 mph /  4.8 km/h 4 mph /  6.4 km/h 52 % 0 in /  0.0 mm
05:15 82.6 °F /  28.1 °C 62.6 °F /  17.0 °C 29.9 in /  1012.8 hPa NE 2 mph /  3.2 km/h 3 mph /  4.8 km/h 51 % 0 in /  0.0 mm
05:25 83.1 °F /  28.4 °C 61.3 °F /  16.3 °C 29.9 in /  1012.8 hPa ENE 3 mph /  4.8 km/h 3 mph /  4.8 km/h 48 % 0 in /  0.0 mm
05:30 83.5 °F /  28.6 °C 61.2 °F /  16.2 °C 29.9 in /  1012.8 hPa East 2 mph /  3.2 km/h 3 mph /  4.8 km/h 47 % 0 in /  0.0 mm
10:31 83.5 °F /  28.6 °C 61.2 °F /  16.2 °C 29.9 in /  1012.8 hPa NNE 3.5 mph /  5.6 km/h 3.5 mph /  5.6 km/h 47 % 0 in /  0.0 mm
10:37 84.2 °F /  29.0 °C 61.9 °F /  16.6 °C 29.9 in /  1012.8 hPa SW 2.4 mph /  3.9 km/h 2.4 mph /  3.9 km/h 47 % 0 in /  0.0 mm
10:42 84.2 °F /  29.0 °C 61.2 °F /  16.2 °C 29.9 in /  1012.8 hPa NNE 3.5 mph /  5.6 km/h 3.5 mph /  5.6 km/h 46 % 0 in /  0.0 mm
10:47 85.3 °F /  29.6 °C 62.2 °F /  16.8 °C 29.9 in /  1012.8 hPa SW 3.5 mph /  5.6 km/h 3.5 mph /  5.6 km/h 46 % 0 in /  0.0 mm
10:48 85.5 °F /  29.7 °C 62.2 °F /  16.8 °C 29.9 in /  1012.8 hPa West 1.4 mph /  2.3 km/h 1.4 mph /  2.3 km/h 46 % 0 in /  0.0 mm
10:53 85.1 °F /  29.5 °C 61.3 °F /  16.3 °C 29.9 in /  1012.8 hPa North 5.8 mph /  9.3 km/h 5.8 mph /  9.3 km/h 45 % 0 in /  0.0 mm
10:58 85.3 °F /  29.6 °C 62.2 °F /  16.8 °C 29.9 in /  1012.8 hPa ENE 5.8 mph /  9.3 km/h 5.8 mph /  9.3 km/h 46 % 0 in /  0.0 mm
11:03 85.1 °F /  29.5 °C 61.3 °F /  16.3 °C 29.9 in /  1012.8 hPa NNE 2.3 mph /  3.7 km/h 2.3 mph /  3.7 km/h 45 % 0 in /  0.0 mm
11:08 85.3 °F /  29.6 °C 61 °F /  16.1 °C 29.9 in /  1012.8 hPa SW 3.6 mph /  5.8 km/h 3.6 mph /  5.8 km/h 44 % 0 in /  0.0 mm
11:13 86 °F /  30.0 °C 61 °F /  16.1 °C 29.9 in /  1012.8 hPa ENE 3.5 mph /  5.6 km/h 3.5 mph /  5.6 km/h 43 % 0 in /  0.0 mm
11:18 86.4 °F /  30.2 °C 60.6 °F /  15.9 °C 29.9 in /  1012.8 hPa East 4.6 mph /  7.4 km/h 4.6 mph /  7.4 km/h 42 % 0 in /  0.0 mm
11:23 87.1 °F /  30.6 °C 59.7 °F /  15.4 °C 29.9 in /  1011.7 hPa ESE 3.5 mph /  5.6 km/h 3.5 mph /  5.6 km/h 40 % 0 in /  0.0 mm
11:28 86.9 °F /  30.5 °C 59 °F /  15.0 °C 29.9 in /  1011.7 hPa East 3.5 mph /  5.6 km/h 3.5 mph /  5.6 km/h 39 % 0 in /  0.0 mm
11:33 86.4 °F /  30.2 °C 57.7 °F /  14.3 °C 29.9 in /  1011.7 hPa NE 4.6 mph /  7.4 km/h 4.6 mph /  7.4 km/h 38 % 0 in /  0.0 mm
11:38 86.7 °F /  30.4 °C 58.1 °F /  14.5 °C 29.9 in /  1011.7 hPa South 3.5 mph /  5.6 km/h 3.5 mph /  5.6 km/h 38 % 0 in /  0.0 mm
11:43 86.7 °F /  30.4 °C 58.1 °F /  14.5 °C 29.9 in /  1011.7 hPa ESE 5.6 mph /  9.0 km/h 5.6 mph /  9.0 km/h 38 % 0 in /  0.0 mm
11:49 86 °F /  30.0 °C 57.4 °F /  14.1 °C 29.9 in /  1011.7 hPa East 4.6 mph /  7.4 km/h 4.6 mph /  7.4 km/h 38 % 0 in /  0.0 mm
11:54 85.8 °F /  29.9 °C 57.4 °F /  14.1 °C 29.9 in /  1011.7 hPa SE 3.5 mph /  5.6 km/h 3.5 mph /  5.6 km/h 38 % 0 in /  0.0 mm
11:59 85.6 °F /  29.8 °C 56.5 °F /  13.6 °C 29.9 in /  1011.7 hPa ESE 5.4 mph /  8.7 km/h 5.4 mph /  8.7 km/h 37 % 0 in /  0.0 mm
12:05 85.3 °F /  29.6 °C 55.2 °F /  12.9 °C 29.9 in /  1011.7 hPa SE 4.6 mph /  7.4 km/h 4.6 mph /  7.4 km/h 36 % 0 in /  0.0 mm
12:10 85.5 °F /  29.7 °C 56.1 °F /  13.4 °C 29.9 in /  1011.7 hPa ENE 4.6 mph /  7.4 km/h 4.6 mph /  7.4 km/h 37 % 0 in /  0.0 mm
12:15 86.4 °F /  30.2 °C 57 °F /  13.9 °C 29.9 in /  1011.7 hPa ENE 1 mph /  1.6 km/h 3 mph /  4.8 km/h 37 % 0 in /  0.0 mm
12:20 86.4 °F /  30.2 °C 55.6 °F /  13.1 °C 29.9 in /  1011.7 hPa SE 3.6 mph /  5.8 km/h 3.6 mph /  5.8 km/h 35 % 0 in /  0.0 mm
12:25 86.4 °F /  30.2 °C 54.7 °F /  12.6 °C 29.9 in /  1011.7 hPa ENE 4.6 mph /  7.4 km/h 4.6 mph /  7.4 km/h 34 % 0 in /  0.0 mm
12:30 86.7 °F /  30.4 °C 55.8 °F /  13.2 °C 29.9 in /  1011.7 hPa East 5 mph /  8.0 km/h 9 mph /  14.5 km/h 35 % 0 in /  0.0 mm
12:35 86.9 °F /  30.5 °C 55.2 °F /  12.9 °C 29.9 in /  1011.7 hPa East 5 mph /  8.0 km/h 7 mph /  11.3 km/h 34 % 0 in /  0.0 mm
12:40 87.6 °F /  30.9 °C 56.7 °F /  13.7 °C 29.9 in /  1011.7 hPa East 5 mph /  8.0 km/h 7 mph /  11.3 km/h 35 % 0 in /  0.0 mm
12:45 87.8 °F /  31.0 °C 56.7 °F /  13.7 °C 29.9 in /  1011.7 hPa East 6 mph /  9.7 km/h 8 mph /  12.9 km/h 35 % 0 in /  0.0 mm
12:50 87.4 °F /  30.8 °C 56.5 °F /  13.6 °C 29.9 in /  1011.7 hPa East 7 mph /  11.3 km/h 11 mph /  17.7 km/h 35 % 0 in /  0.0 mm
12:55 88 °F /  31.1 °C 56.8 °F /  13.8 °C 29.8 in /  1010.7 hPa East 7 mph /  11.3 km/h 9 mph /  14.5 km/h 35 % 0 in /  0.0 mm
13:00 88.9 °F /  31.6 °C 58.5 °F /  14.7 °C 29.8 in /  1010.7 hPa ESE 2 mph /  3.2 km/h 9 mph /  14.5 km/h 36 % 0 in /  0.0 mm
13:05 88.7 °F /  31.5 °C 58.3 °F /  14.6 °C 29.8 in /  1010.7 hPa SE 8.1 mph /  13.0 km/h 8.1 mph /  13.0 km/h 36 % 0 in /  0.0 mm
13:10 87.8 °F /  31.0 °C 57.6 °F /  14.2 °C 29.9 in /  1011.7 hPa ESE 7 mph /  11.3 km/h 9 mph /  14.5 km/h 36 % 0 in /  0.0 mm
13:15 87.4 °F /  30.8 °C 57.9 °F /  14.4 °C 29.9 in /  1011.7 hPa ESE 9 mph /  14.5 km/h 13 mph /  20.9 km/h 37 % 0 in /  0.0 mm
13:20 87.1 °F /  30.6 °C 57.7 °F /  14.3 °C 29.9 in /  1011.7 hPa ESE 9.8 mph /  15.8 km/h 9.8 mph /  15.8 km/h 37 % 0 in /  0.0 mm
13:25 86.7 °F /  30.4 °C 58.1 °F /  14.5 °C 29.9 in /  1011.7 hPa East 8.1 mph /  13.0 km/h 8.1 mph /  13.0 km/h 38 % 0 in /  0.0 mm
13:30 87.1 °F /  30.6 °C 58.5 °F /  14.7 °C 29.9 in /  1011.7 hPa ESE 6 mph /  9.7 km/h 10 mph /  16.1 km/h 38 % 0 in /  0.0 mm
13:35 86.9 °F /  30.5 °C 58.3 °F /  14.6 °C 29.9 in /  1011.7 hPa ESE 6 mph /  9.7 km/h 10 mph /  16.1 km/h 38 % 0 in /  0.0 mm
13:40 87.1 °F /  30.6 °C 59.2 °F /  15.1 °C 29.9 in /  1011.7 hPa ESE 6 mph /  9.7 km/h 14 mph /  22.5 km/h 39 % 0 in /  0.0 mm
13:45 87.3 °F /  30.7 °C 59.2 °F /  15.1 °C 29.9 in /  1011.7 hPa ESE 6 mph /  9.7 km/h 14 mph /  22.5 km/h 39 % 0 in /  0.0 mm
13:46 87.4 °F /  30.8 °C 59.4 °F /  15.2 °C 29.9 in /  1011.7 hPa ENE 9.2 mph /  14.8 km/h 9.2 mph /  14.8 km/h 39 % 0 in /  0.0 mm
13:51 87.3 °F /  30.7 °C 60.1 °F /  15.6 °C 29.9 in /  1011.7 hPa East 8.1 mph /  13.0 km/h 8.1 mph /  13.0 km/h 40 % 0 in /  0.0 mm
13:56 88.3 °F /  31.3 °C 60.3 °F /  15.7 °C 29.9 in /  1011.7 hPa East 9.2 mph /  14.8 km/h 9.2 mph /  14.8 km/h 39 % 0 in /  0.0 mm
14:01 88.2 °F /  31.2 °C 60.1 °F /  15.6 °C 29.9 in /  1011.7 hPa East 6 mph /  9.7 km/h 6 mph /  9.7 km/h 39 % 0 in /  0.0 mm
14:06 88.7 °F /  31.5 °C 60.6 °F /  15.9 °C 29.9 in /  1011.7 hPa ENE 5.4 mph /  8.7 km/h 5.4 mph /  8.7 km/h 39 % 0 in /  0.0 mm
14:11 88.5 °F /  31.4 °C 59.7 °F /  15.4 °C 29.9 in /  1011.7 hPa South 10.4 mph /  16.7 km/h 10.4 mph /  16.7 km/h 38 % 0 in /  0.0 mm
14:16 88.7 °F /  31.5 °C 59.7 °F /  15.4 °C 29.9 in /  1011.7 hPa ESE 15.6 mph /  25.1 km/h 15.6 mph /  25.1 km/h 38 % 0 in /  0.0 mm
14:21 88.9 °F /  31.6 °C 60.1 °F /  15.6 °C 29.9 in /  1011.7 hPa South 6.9 mph /  11.1 km/h 6.9 mph /  11.1 km/h 38 % 0 in /  0.0 mm
14:26 89.1 °F /  31.7 °C 60.1 °F /  15.6 °C 29.9 in /  1011.7 hPa ESE 7.1 mph /  11.4 km/h 7.8 mph /  12.6 km/h 38 % 0 in /  0.0 mm
14:31 88 °F /  31.1 °C 59.9 °F /  15.5 °C 29.9 in /  1011.7 hPa ESE 11.5 mph /  18.5 km/h 11.5 mph /  18.5 km/h 39 % 0 in /  0.0 mm
14:33 87.8 °F /  31.0 °C 59.7 °F /  15.4 °C 29.9 in /  1011.7 hPa ESE 15 mph /  24.1 km/h 15 mph /  24.1 km/h 39 % 0 in /  0.0 mm
14:38 87.6 °F /  30.9 °C 60.3 °F /  15.7 °C 29.9 in /  1011.7 hPa East 12.7 mph /  20.4 km/h 12.7 mph /  20.4 km/h 40 % 0 in /  0.0 mm
14:43 87.6 °F /  30.9 °C 61 °F /  16.1 °C 29.9 in /  1011.7 hPa ESE 8.1 mph /  13.0 km/h 8.1 mph /  13.0 km/h 41 % 0 in /  0.0 mm
14:48 87.8 °F /  31.0 °C 61.2 °F /  16.2 °C 29.9 in /  1011.7 hPa SSE 9.2 mph /  14.8 km/h 9.2 mph /  14.8 km/h 41 % 0 in /  0.0 mm
14:53 86.7 °F /  30.4 °C 61 °F /  16.1 °C 29.9 in /  1011.7 hPa ESE 11.5 mph /  18.5 km/h 11.5 mph /  18.5 km/h 42 % 0 in /  0.0 mm
14:58 87.3 °F /  30.7 °C 61.3 °F /  16.3 °C 29.9 in /  1011.7 hPa SE 10.7 mph /  17.2 km/h 10.7 mph /  17.2 km/h 42 % 0 in /  0.0 mm
15:03 87.3 °F /  30.7 °C 62.1 °F /  16.7 °C 29.9 in /  1011.7 hPa East 10 mph /  16.1 km/h 10 mph /  16.1 km/h 43 % 0 in /  0.0 mm
15:08 87.3 °F /  30.7 °C 61.3 °F /  16.3 °C 29.9 in /  1011.7 hPa SE 9.2 mph /  14.8 km/h 9.2 mph /  14.8 km/h 42 % 0 in /  0.0 mm
15:10 87.6 °F /  30.9 °C 61.7 °F /  16.5 °C 29.9 in /  1011.7 hPa East 9.2 mph /  14.8 km/h 9.2 mph /  14.8 km/h 42 % 0 in /  0.0 mm
15:14 87.3 °F /  30.7 °C 61.3 °F /  16.3 °C 29.9 in /  1011.7 hPa ESE 10.7 mph /  17.2 km/h 10.7 mph /  17.2 km/h 42 % 0 in /  0.0 mm
15:20 88.2 °F /  31.2 °C 61.5 °F /  16.4 °C 29.9 in /  1011.7 hPa SSW 5.8 mph /  9.3 km/h 5.8 mph /  9.3 km/h 41 % 0 in /  0.0 mm
15:25 88.9 °F /  31.6 °C 62.1 °F /  16.7 °C 29.9 in /  1011.7 hPa ESE 6.9 mph /  11.1 km/h 6.9 mph /  11.1 km/h 41 % 0 in /  0.0 mm
15:30 88.3 °F /  31.3 °C 61 °F /  16.1 °C 29.9 in /  1011.7 hPa SE 5 mph /  8.0 km/h 14 mph /  22.5 km/h 40 % 0 in /  0.0 mm
15:35 89.1 °F /  31.7 °C 61 °F /  16.1 °C 29.9 in /  1011.7 hPa ESE 8 mph /  12.9 km/h 16 mph /  25.7 km/h 39 % 0 in /  0.0 mm
15:40 88 °F /  31.1 °C 59.9 °F /  15.5 °C 29.9 in /  1011.7 hPa SSE 8.1 mph /  13.0 km/h 8.1 mph /  13.0 km/h 39 % 0 in /  0.0 mm
15:45 89.1 °F /  31.7 °C 61 °F /  16.1 °C 29.9 in /  1011.7 hPa SE 6 mph /  9.7 km/h 9 mph /  14.5 km/h 39 % 0 in /  0.0 mm
15:50 87.4 °F /  30.8 °C 60.1 °F /  15.6 °C 29.9 in /  1011.7 hPa SE 9 mph /  14.5 km/h 14 mph /  22.5 km/h 40 % 0 in /  0.0 mm
15:55 87.6 °F /  30.9 °C 61 °F /  16.1 °C 29.9 in /  1011.7 hPa SE 5 mph /  8.0 km/h 6 mph /  9.7 km/h 41 % 0 in /  0.0 mm
16:00 86.4 °F /  30.2 °C 59.2 °F /  15.1 °C 29.9 in /  1011.7 hPa East 10.4 mph /  16.7 km/h 10.5 mph /  16.9 km/h 40 % 0 in /  0.0 mm
16:05 86.5 °F /  30.3 °C 59.4 °F /  15.2 °C 29.9 in /  1011.7 hPa East 11.2 mph /  18.0 km/h 11.2 mph /  18.0 km/h 40 % 0 in /  0.0 mm
16:10 86.7 °F /  30.4 °C 59.5 °F /  15.3 °C 29.9 in /  1011.7 hPa NNE 16.1 mph /  25.9 km/h 16.1 mph /  25.9 km/h 40 % 0 in /  0.0 mm
16:15 87.1 °F /  30.6 °C 59.7 °F /  15.4 °C 29.9 in /  1011.7 hPa ESE 10.4 mph /  16.7 km/h 10.4 mph /  16.7 km/h 40 % 0 in /  0.0 mm
16:20 86.4 °F /  30.2 °C 59.2 °F /  15.1 °C 29.9 in /  1011.7 hPa South 10.4 mph /  16.7 km/h 10.4 mph /  16.7 km/h 40 % 0 in /  0.0 mm
16:25 86.5 °F /  30.3 °C 59.4 °F /  15.2 °C 29.9 in /  1011.7 hPa ESE 7 mph /  11.3 km/h 12 mph /  19.3 km/h 40 % 0 in /  0.0 mm
16:30 87.3 °F /  30.7 °C 60.1 °F /  15.6 °C 29.9 in /  1011.7 hPa ESE 8.1 mph /  13.0 km/h 8.1 mph /  13.0 km/h 40 % 0 in /  0.0 mm
16:35 87.4 °F /  30.8 °C 60.3 °F /  15.7 °C 29.9 in /  1011.7 hPa ESE 8.1 mph /  13.0 km/h 8.1 mph /  13.0 km/h 40 % 0 in /  0.0 mm
16:40 86.2 °F /  30.1 °C 59 °F /  15.0 °C 29.9 in /  1011.7 hPa ENE 9.2 mph /  14.8 km/h 9.2 mph /  14.8 km/h 40 % 0 in /  0.0 mm
16:45 86.5 °F /  30.3 °C 59.4 °F /  15.2 °C 29.9 in /  1011.7 hPa ESE 10.4 mph /  16.7 km/h 10.4 mph /  16.7 km/h 40 % 0 in /  0.0 mm
16:50 87.1 °F /  30.6 °C 59.7 °F /  15.4 °C 29.9 in /  1011.7 hPa East 12.1 mph /  19.5 km/h 12.1 mph /  19.5 km/h 40 % 0 in /  0.0 mm
16:55 86.2 °F /  30.1 °C 59 °F /  15.0 °C 29.9 in /  1011.7 hPa ESE 9.2 mph /  14.8 km/h 9.2 mph /  14.8 km/h 40 % 0 in /  0.0 mm
17:00 86.7 °F /  30.4 °C 60.3 °F /  15.7 °C 29.9 in /  1011.7 hPa SE 8.1 mph /  13.0 km/h 8.1 mph /  13.0 km/h 41 % 0 in /  0.0 mm
17:05 86.9 °F /  30.5 °C 60.4 °F /  15.8 °C 29.9 in /  1011.7 hPa ENE 10.4 mph /  16.7 km/h 10.4 mph /  16.7 km/h 41 % 0 in /  0.0 mm
17:10 86.5 °F /  30.3 °C 59.4 °F /  15.2 °C 29.8 in /  1010.7 hPa ESE 8.1 mph /  13.0 km/h 8.1 mph /  13.0 km/h 40 % 0 in /  0.0 mm
17:11 86.5 °F /  30.3 °C 59.4 °F /  15.2 °C 29.8 in /  1010.7 hPa ESE 9.8 mph /  15.8 km/h 9.8 mph /  15.8 km/h 40 % 0 in /  0.0 mm
17:16 86.2 °F /  30.1 °C 60.4 °F /  15.8 °C 29.8 in /  1010.7 hPa ESE 10.4 mph /  16.7 km/h 10.4 mph /  16.7 km/h 42 % 0 in /  0.0 mm
17:21 85.8 °F /  29.9 °C 60.1 °F /  15.6 °C 29.9 in /  1012.8 hPa ESE 9.2 mph /  14.8 km/h 9.2 mph /  14.8 km/h 42 % 0 in /  0.0 mm
17:26 85.5 °F /  29.7 °C 60.4 °F /  15.8 °C 29.9 in /  1012.8 hPa South 8.1 mph /  13.0 km/h 8.1 mph /  13.0 km/h 43 % 0 in /  0.0 mm
17:31 85.5 °F /  29.7 °C 61.7 °F /  16.5 °C 29.9 in /  1012.8 hPa SE 5.8 mph /  9.3 km/h 5.8 mph /  9.3 km/h 45 % 0 in /  0.0 mm
17:36 85.8 °F /  29.9 °C 62.1 °F /  16.7 °C 29.9 in /  1011.7 hPa NE 9.2 mph /  14.8 km/h 9.2 mph /  14.8 km/h 45 % 0 in /  0.0 mm
17:41 85.1 °F /  29.5 °C 61.3 °F /  16.3 °C 29.9 in /  1011.7 hPa ESE 8.1 mph /  13.0 km/h 8.1 mph /  13.0 km/h 45 % 0 in /  0.0 mm
17:46 85.1 °F /  29.5 °C 61.3 °F /  16.3 °C 29.9 in /  1011.7 hPa East 8.1 mph /  13.0 km/h 8.1 mph /  13.0 km/h 45 % 0 in /  0.0 mm
17:51 84.6 °F /  29.2 °C 61 °F /  16.1 °C 29.9 in /  1011.7 hPa ESE 8.1 mph /  13.0 km/h 8.1 mph /  13.0 km/h 45 % 0 in /  0.0 mm
17:57 84.4 °F /  29.1 °C 61.3 °F /  16.3 °C 29.9 in /  1011.7 hPa East 9.2 mph /  14.8 km/h 9.2 mph /  14.8 km/h 46 % 0 in /  0.0 mm
18:02 84.2 °F /  29.0 °C 61.9 °F /  16.6 °C 29.9 in /  1011.7 hPa ENE 8.1 mph /  13.0 km/h 8.1 mph /  13.0 km/h 47 % 0 in /  0.0 mm
18:07 84.2 °F /  29.0 °C 61.9 °F /  16.6 °C 29.9 in /  1011.7 hPa NNE 9.2 mph /  14.8 km/h 9.2 mph /  14.8 km/h 47 % 0 in /  0.0 mm
18:12 84.2 °F /  29.0 °C 61.9 °F /  16.6 °C 29.9 in /  1011.7 hPa ENE 6.9 mph /  11.1 km/h 7.4 mph /  11.9 km/h 47 % 0 in /  0.0 mm
18:17 84.2 °F /  29.0 °C 61.9 °F /  16.6 °C 29.9 in /  1011.7 hPa East 10.5 mph /  16.9 km/h 10.5 mph /  16.9 km/h 47 % 0 in /  0.0 mm
18:22 84 °F /  28.9 °C 62.2 °F /  16.8 °C 29.8 in /  1010.7 hPa SSE 8.1 mph /  13.0 km/h 8.1 mph /  13.0 km/h 48 % 0 in /  0.0 mm
18:28 83.8 °F /  28.8 °C 61.5 °F /  16.4 °C 29.8 in /  1010.7 hPa ESE 8.5 mph /  13.7 km/h 8.5 mph /  13.7 km/h 47 % 0 in /  0.0 mm
18:33 83.3 °F /  28.5 °C 61 °F /  16.1 °C 29.8 in /  1010.7 hPa SSE 11.5 mph /  18.5 km/h 11.5 mph /  18.5 km/h 47 % 0 in /  0.0 mm
18:38 82.9 °F /  28.3 °C 60.1 °F /  15.6 °C 29.8 in /  1010.7 hPa ESE 15 mph /  24.1 km/h 15 mph /  24.1 km/h 46 % 0 in /  0.0 mm
18:43 82.4 °F /  28.0 °C 60.1 °F /  15.6 °C 29.8 in /  1010.7 hPa NE 9 mph /  14.5 km/h 9 mph /  14.5 km/h 47 % 0 in /  0.0 mm
18:48 82.4 °F /  28.0 °C 60.6 °F /  15.9 °C 29.8 in /  1010.7 hPa ESE 8.1 mph /  13.0 km/h 8.1 mph /  13.0 km/h 48 % 0 in /  0.0 mm
18:53 82.2 °F /  27.9 °C 60.6 °F /  15.9 °C 29.8 in /  1010.0 hPa ESE 8.1 mph /  13.0 km/h 8.1 mph /  13.0 km/h 48 % 0 in /  0.0 mm
18:58 82 °F /  27.8 °C 61 °F /  16.1 °C 29.8 in /  1010.0 hPa ENE 7.4 mph /  11.9 km/h 7.4 mph /  11.9 km/h 49 % 0 in /  0.0 mm
19:03 81.7 °F /  27.6 °C 60.6 °F /  15.9 °C 29.8 in /  1010.0 hPa East 11.5 mph /  18.5 km/h 11.5 mph /  18.5 km/h 49 % 0 in /  0.0 mm
19:08 81.9 °F /  27.7 °C 60.8 °F /  16.0 °C 29.8 in /  1010.0 hPa NNE 8.7 mph /  14.0 km/h 8.7 mph /  14.0 km/h 49 % 0 in /  0.0 mm
19:13 81.7 °F /  27.6 °C 60.6 °F /  15.9 °C 29.8 in /  1010.0 hPa ENE 6.9 mph /  11.1 km/h 6.9 mph /  11.1 km/h 49 % 0 in /  0.0 mm
19:15 74.3 °F /  23.5 °C 66.6 °F /  19.2 °C 29.8 in /  1010.7 hPa NE 5 mph /  8.0 km/h 5 mph /  8.0 km/h 77 % 0 in /  0.0 mm
19:18 81.3 °F /  27.4 °C 60.3 °F /  15.7 °C 29.8 in /  1010.0 hPa NNE 5.8 mph /  9.3 km/h 5.8 mph /  9.3 km/h 49 % 0 in /  0.0 mm
19:23 81.1 °F /  27.3 °C 60.6 °F /  15.9 °C 29.8 in /  1010.0 hPa ESE 9.2 mph /  14.8 km/h 9.2 mph /  14.8 km/h 50 % 0 in /  0.0 mm
19:25 74.3 °F /  23.5 °C 66.6 °F /  19.2 °C 29.8 in /  1010.0 hPa NE 3 mph /  4.8 km/h 5 mph /  8.0 km/h 77 % 0 in /  0.0 mm
19:28 81.1 °F /  27.3 °C 60.3 °F /  15.7 °C 29.8 in /  1010.0 hPa NNE 8.1 mph /  13.0 km/h 8.1 mph /  13.0 km/h 49 % 0 in /  0.0 mm
19:33 81.3 °F /  27.4 °C 60.3 °F /  15.7 °C 29.8 in /  1010.0 hPa ESE 8.1 mph /  13.0 km/h 8.1 mph /  13.0 km/h 49 % 0 in /  0.0 mm
19:35 74.1 °F /  23.4 °C 66.4 °F /  19.1 °C 29.8 in /  1010.0 hPa NE 3 mph /  4.8 km/h 3 mph /  4.8 km/h 77 % 0 in /  0.0 mm
19:38 81.1 °F /  27.3 °C 60.6 °F /  15.9 °C 29.8 in /  1010.0 hPa ENE 11.2 mph /  18.0 km/h 11.2 mph /  18.0 km/h 50 % 0 in /  0.0 mm
19:43 81 °F /  27.2 °C 60.6 °F /  15.9 °C 29.8 in /  1010.0 hPa ESE 10 mph /  16.1 km/h 10 mph /  16.1 km/h 50 % 0 in /  0.0 mm
19:45 74.1 °F /  23.4 °C 66.4 °F /  19.1 °C 29.8 in /  1010.0 hPa NE 5 mph /  8.0 km/h 5 mph /  8.0 km/h 77 % 0 in /  0.0 mm
19:48 80.8 °F /  27.1 °C 61 °F /  16.1 °C 29.8 in /  1010.0 hPa South 10.4 mph /  16.7 km/h 10.4 mph /  16.7 km/h 51 % 0 in /  0.0 mm
19:54 81 °F /  27.2 °C 60.6 °F /  15.9 °C 29.8 in /  1010.0 hPa ESE 8.1 mph /  13.0 km/h 8.1 mph /  13.0 km/h 50 % 0 in /  0.0 mm
19:55 74.3 °F /  23.5 °C 66.6 °F /  19.2 °C 29.8 in /  1010.0 hPa NNE 5 mph /  8.0 km/h 6 mph /  9.7 km/h 77 % 0 in /  0.0 mm
19:59 80.8 °F /  27.1 °C 60.4 °F /  15.8 °C 29.8 in /  1010.0 hPa ESE 5.8 mph /  9.3 km/h 5.8 mph /  9.3 km/h 50 % 0 in /  0.0 mm
20:04 80.8 °F /  27.1 °C 60.4 °F /  15.8 °C 29.8 in /  1010.0 hPa ESE 5.8 mph /  9.3 km/h 5.8 mph /  9.3 km/h 50 % 0 in /  0.0 mm
20:05 74.1 °F /  23.4 °C 66 °F /  18.9 °C 29.8 in /  1010.0 hPa NNE 3 mph /  4.8 km/h 6 mph /  9.7 km/h 76 % 0 in /  0.0 mm
20:09 80.6 °F /  27.0 °C 60.8 °F /  16.0 °C 29.8 in /  1010.0 hPa East 5.9 mph /  9.5 km/h 5.9 mph /  9.5 km/h 51 % 0 in /  0.0 mm
20:10 80.6 °F /  27.0 °C 60.3 °F /  15.7 °C 29.8 in /  1010.0 hPa ESE 5.8 mph /  9.3 km/h 6 mph /  9.7 km/h 50 % 0 in /  0.0 mm
20:15 80.6 °F /  27.0 °C 60.8 °F /  16.0 °C 29.8 in /  1010.0 hPa East 5.8 mph /  9.3 km/h 5.8 mph /  9.3 km/h 51 % 0 in /  0.0 mm
20:21 80.2 °F /  26.8 °C 62.6 °F /  17.0 °C 29.8 in /  1010.0 hPa ENE 4.6 mph /  7.4 km/h 4.7 mph /  7.6 km/h 55 % 0 in /  0.0 mm
20:25 74.1 °F /  23.4 °C 66 °F /  18.9 °C 29.8 in /  1010.0 hPa NE 5 mph /  8.0 km/h 5 mph /  8.0 km/h 76 % 0 in /  0.0 mm
20:26 79.7 °F /  26.5 °C 63.1 °F /  17.3 °C 29.8 in /  1010.0 hPa ENE 4.9 mph /  7.9 km/h 7.8 mph /  12.6 km/h 57 % 0 in /  0.0 mm
20:31 79.2 °F /  26.2 °C 63.7 °F /  17.6 °C 29.8 in /  1010.0 hPa ENE 6.2 mph /  10.0 km/h 6.2 mph /  10.0 km/h 59 % 0 in /  0.0 mm
20:35 74.3 °F /  23.5 °C 66.2 °F /  19.0 °C 29.8 in /  1010.0 hPa NE 3 mph /  4.8 km/h 5 mph /  8.0 km/h 76 % 0 in /  0.0 mm
20:36 78.8 °F /  26.0 °C 64.8 °F /  18.2 °C 29.8 in /  1010.0 hPa SSE 8.1 mph /  13.0 km/h 8.1 mph /  13.0 km/h 62 % 0 in /  0.0 mm
20:41 78.6 °F /  25.9 °C 64.9 °F /  18.3 °C 29.8 in /  1010.0 hPa ENE 10.4 mph /  16.7 km/h 10.4 mph /  16.7 km/h 63 % 0 in /  0.0 mm
20:45 74.3 °F /  23.5 °C 66.2 °F /  19.0 °C 29.8 in /  1009.0 hPa NE 3 mph /  4.8 km/h 4 mph /  6.4 km/h 76 % 0 in /  0.0 mm
20:46 78.4 °F /  25.8 °C 65.1 °F /  18.4 °C 29.8 in /  1010.0 hPa East 8.1 mph /  13.0 km/h 8.1 mph /  13.0 km/h 64 % 0 in /  0.0 mm
20:51 78.1 °F /  25.6 °C 65.5 °F /  18.6 °C 29.8 in /  1010.0 hPa ENE 10.4 mph /  16.7 km/h 10.4 mph /  16.7 km/h 65 % 0 in /  0.0 mm
20:55 74.3 °F /  23.5 °C 66.2 °F /  19.0 °C 29.8 in /  1010.0 hPa NE 2 mph /  3.2 km/h 3 mph /  4.8 km/h 76 % 0 in /  0.0 mm
20:57 77.9 °F /  25.5 °C 65.1 °F /  18.4 °C 29.8 in /  1010.0 hPa ENE 6.9 mph /  11.1 km/h 6.9 mph /  11.1 km/h 65 % 0 in /  0.0 mm
21:02 77.7 °F /  25.4 °C 64.9 °F /  18.3 °C 29.8 in /  1010.0 hPa East 5.8 mph /  9.3 km/h 5.8 mph /  9.3 km/h 65 % 0 in /  0.0 mm
21:05 74.5 °F /  23.6 °C 66.4 °F /  19.1 °C 29.8 in /  1010.0 hPa NE 1 mph /  1.6 km/h 3 mph /  4.8 km/h 76 % 0 in /  0.0 mm
21:07 77.7 °F /  25.4 °C 65.5 °F /  18.6 °C 29.8 in /  1010.0 hPa NNE 6.9 mph /  11.1 km/h 6.9 mph /  11.1 km/h 66 % 0 in /  0.0 mm
21:12 77.5 °F /  25.3 °C 64.8 °F /  18.2 °C 29.8 in /  1010.0 hPa East 4.6 mph /  7.4 km/h 4.6 mph /  7.4 km/h 65 % 0 in /  0.0 mm
21:15 74.5 °F /  23.6 °C 66.4 °F /  19.1 °C 29.8 in /  1010.0 hPa NE 2 mph /  3.2 km/h 3 mph /  4.8 km/h 76 % 0 in /  0.0 mm
21:17 77.5 °F /  25.3 °C 65.3 °F /  18.5 °C 29.8 in /  1010.0 hPa ESE 9.2 mph /  14.8 km/h 9.2 mph /  14.8 km/h 66 % 0 in /  0.0 mm
21:22 77.2 °F /  25.1 °C 64.9 °F /  18.3 °C 29.8 in /  1010.0 hPa ESE 7.8 mph /  12.6 km/h 7.8 mph /  12.6 km/h 66 % 0 in /  0.0 mm
21:25 74.5 °F /  23.6 °C 66.4 °F /  19.1 °C 29.8 in /  1010.0 hPa NNE 3 mph /  4.8 km/h 3 mph /  4.8 km/h 76 % 0 in /  0.0 mm
21:27 77 °F /  25.0 °C 65.1 °F /  18.4 °C 29.8 in /  1010.0 hPa ENE 8.1 mph /  13.0 km/h 8.1 mph /  13.0 km/h 67 % 0 in /  0.0 mm
21:32 77 °F /  25.0 °C 65.1 °F /  18.4 °C 29.8 in /  1010.0 hPa East 5.8 mph /  9.3 km/h 5.8 mph /  9.3 km/h 67 % 0 in /  0.0 mm
21:35 74.7 °F /  23.7 °C 66.2 °F /  19.0 °C 29.8 in /  1010.0 hPa NNE 3 mph /  4.8 km/h 5 mph /  8.0 km/h 75 % 0 in /  0.0 mm
21:37 76.8 °F /  24.9 °C 65.5 °F /  18.6 °C 29.8 in /  1010.0 hPa ENE 5.8 mph /  9.3 km/h 5.8 mph /  9.3 km/h 68 % 0 in /  0.0 mm
21:42 76.6 °F /  24.8 °C 65.7 °F /  18.7 °C 29.8 in /  1010.0 hPa SE 5.8 mph /  9.3 km/h 5.8 mph /  9.3 km/h 69 % 0 in /  0.0 mm
21:45 74.7 °F /  23.7 °C 65.8 °F /  18.8 °C 29.8 in /  1010.0 hPa NE 5 mph /  8.0 km/h 5 mph /  8.0 km/h 74 % 0 in /  0.0 mm
21:47 76.6 °F /  24.8 °C 65.7 °F /  18.7 °C 29.8 in /  1010.0 hPa ENE 6.9 mph /  11.1 km/h 6.9 mph /  11.1 km/h 69 % 0 in /  0.0 mm
21:52 76.5 °F /  24.7 °C 65.8 °F /  18.8 °C 29.8 in /  1010.0 hPa ENE 7.8 mph /  12.6 km/h 7.8 mph /  12.6 km/h 70 % 0 in /  0.0 mm
21:55 74.7 °F /  23.7 °C 65.8 °F /  18.8 °C 29.8 in /  1010.0 hPa NE 3 mph /  4.8 km/h 4 mph /  6.4 km/h 74 % 0 in /  0.0 mm
21:57 76.3 °F /  24.6 °C 65.8 °F /  18.8 °C 29.8 in /  1010.0 hPa East 4.6 mph /  7.4 km/h 4.6 mph /  7.4 km/h 70 % 0 in /  0.0 mm
22:02 76.3 °F /  24.6 °C 65.8 °F /  18.8 °C 29.8 in /  1010.0 hPa ENE 8.1 mph /  13.0 km/h 8.1 mph /  13.0 km/h 70 % 0 in /  0.0 mm
22:05 74.7 °F /  23.7 °C 65.5 °F /  18.6 °C 29.8 in /  1010.0 hPa NNE 3 mph /  4.8 km/h 4 mph /  6.4 km/h 73 % 0 in /  0.0 mm
22:08 76.1 °F /  24.5 °C 65.7 °F /  18.7 °C 29.8 in /  1010.0 hPa SE 4.6 mph /  7.4 km/h 4.6 mph /  7.4 km/h 70 % 0 in /  0.0 mm
22:13 75.9 °F /  24.4 °C 65.8 °F /  18.8 °C 29.8 in /  1010.0 hPa NE 5.8 mph /  9.3 km/h 5.8 mph /  9.3 km/h 71 % 0 in /  0.0 mm
22:15 74.5 °F /  23.6 °C 65.3 °F /  18.5 °C 29.8 in /  1010.0 hPa NNE 3 mph /  4.8 km/h 6 mph /  9.7 km/h 73 % 0 in /  0.0 mm
22:18 75.9 °F /  24.4 °C 65.8 °F /  18.8 °C 29.8 in /  1010.0 hPa East 4.6 mph /  7.4 km/h 4.6 mph /  7.4 km/h 71 % 0 in /  0.0 mm
22:23 75.9 °F /  24.4 °C 65.8 °F /  18.8 °C 29.8 in /  1010.0 hPa SSE 9.2 mph /  14.8 km/h 9.2 mph /  14.8 km/h 71 % 0 in /  0.0 mm
22:25 74.5 °F /  23.6 °C 65.3 °F /  18.5 °C 29.8 in /  1009.0 hPa NNE 3 mph /  4.8 km/h 5 mph /  8.0 km/h 73 % 0 in /  0.0 mm
22:28 75.7 °F /  24.3 °C 65.7 °F /  18.7 °C 29.8 in /  1010.0 hPa ESE 6.9 mph /  11.1 km/h 6.9 mph /  11.1 km/h 71 % 0 in /  0.0 mm
22:33 75.7 °F /  24.3 °C 65.7 °F /  18.7 °C 29.8 in /  1010.0 hPa ESE 9.2 mph /  14.8 km/h 9.2 mph /  14.8 km/h 71 % 0 in /  0.0 mm
22:35 74.3 °F /  23.5 °C 65.1 °F /  18.4 °C 29.8 in /  1009.0 hPa NNE 1 mph /  1.6 km/h 4 mph /  6.4 km/h 73 % 0 in /  0.0 mm
22:38 75.7 °F /  24.3 °C 65.7 °F /  18.7 °C 29.8 in /  1010.0 hPa SE 4.6 mph /  7.4 km/h 4.6 mph /  7.4 km/h 71 % 0 in /  0.0 mm
22:43 75.6 °F /  24.2 °C 65.8 °F /  18.8 °C 29.8 in /  1010.0 hPa East 6.9 mph /  11.1 km/h 6.9 mph /  11.1 km/h 72 % 0 in /  0.0 mm
22:45 73.9 °F /  23.3 °C 64.8 °F /  18.2 °C 29.8 in /  1010.0 hPa NNE 1 mph /  1.6 km/h 3 mph /  4.8 km/h 73 % 0 in /  0.0 mm
22:48 75.6 °F /  24.2 °C 65.8 °F /  18.8 °C 29.8 in /  1010.0 hPa ESE 5.8 mph /  9.3 km/h 5.8 mph /  9.3 km/h 72 % 0 in /  0.0 mm
22:53 75.6 °F /  24.2 °C 65.8 °F /  18.8 °C 29.8 in /  1010.7 hPa East 5.8 mph /  9.3 km/h 5.8 mph /  9.3 km/h 72 % 0 in /  0.0 mm
22:55 73.8 °F /  23.2 °C 64.6 °F /  18.1 °C 29.8 in /  1010.0 hPa NE 2 mph /  3.2 km/h 3 mph /  4.8 km/h 73 % 0 in /  0.0 mm
22:58 75.4 °F /  24.1 °C 66 °F /  18.9 °C 29.8 in /  1010.7 hPa NE 7.1 mph /  11.4 km/h 7.1 mph /  11.4 km/h 73 % 0 in /  0.0 mm
23:03 75.4 °F /  24.1 °C 66 °F /  18.9 °C 29.8 in /  1010.7 hPa NNE 5.8 mph /  9.3 km/h 5.8 mph /  9.3 km/h 73 % 0 in /  0.0 mm
23:05 73.6 °F /  23.1 °C 64.4 °F /  18.0 °C 29.8 in /  1010.0 hPa NE 1 mph /  1.6 km/h 3 mph /  4.8 km/h 73 % 0 in /  0.0 mm
23:09 75.2 °F /  24.0 °C 65.8 °F /  18.8 °C 29.8 in /  1010.7 hPa ENE 3.5 mph /  5.6 km/h 3.5 mph /  5.6 km/h 73 % 0 in /  0.0 mm
23:14 75.2 °F /  24.0 °C 65.7 °F /  18.7 °C 29.8 in /  1010.7 hPa NNE 4.3 mph /  6.9 km/h 4.3 mph /  6.9 km/h 72 % 0 in /  0.0 mm
23:15 73.4 °F /  23.0 °C 64.2 °F /  17.9 °C 29.8 in /  1010.0 hPa NE 3 mph /  4.8 km/h 4 mph /  6.4 km/h 73 % 0 in /  0.0 mm
23:19 75 °F /  23.9 °C 66.2 °F /  19.0 °C 29.8 in /  1010.7 hPa NE 4.6 mph /  7.4 km/h 4.6 mph /  7.4 km/h 74 % 0 in /  0.0 mm
23:24 75 °F /  23.9 °C 66.2 °F /  19.0 °C 29.8 in /  1010.0 hPa ENE 3.5 mph /  5.6 km/h 3.5 mph /  5.6 km/h 74 % 0 in /  0.0 mm
23:25 73 °F /  22.8 °C 63.9 °F /  17.7 °C 29.8 in /  1009.0 hPa NE 3 mph /  4.8 km/h 3 mph /  4.8 km/h 73 % 0 in /  0.0 mm
23:29 74.8 °F /  23.8 °C 66 °F /  18.9 °C 29.8 in /  1010.0 hPa ENE 6.9 mph /  11.1 km/h 6.9 mph /  11.1 km/h 74 % 0 in /  0.0 mm
23:34 74.7 °F /  23.7 °C 66.2 °F /  19.0 °C 29.8 in /  1010.0 hPa ENE 5.8 mph /  9.3 km/h 5.8 mph /  9.3 km/h 75 % 0 in /  0.0 mm
23:35 73 °F /  22.8 °C 64.2 °F /  17.9 °C 29.8 in /  1009.0 hPa NE 2 mph /  3.2 km/h 4 mph /  6.4 km/h 74 % 0 in /  0.0 mm
23:40 74.7 °F /  23.7 °C 66.2 °F /  19.0 °C 29.8 in /  1010.0 hPa NE 5.8 mph /  9.3 km/h 5.8 mph /  9.3 km/h 75 % 0 in /  0.0 mm
23:45 74.7 °F /  23.7 °C 66.6 °F /  19.2 °C 29.8 in /  1010.0 hPa NE 6 mph /  9.7 km/h 6 mph /  9.7 km/h 76 % 0 in /  0.0 mm
23:50 74.5 °F /  23.6 °C 66.4 °F /  19.1 °C 29.8 in /  1010.0 hPa ENE 3.8 mph /  6.1 km/h 4 mph /  6.4 km/h 76 % 0 in /  0.0 mm
23:55 74.5 °F /  23.6 °C 66.4 °F /  19.1 °C 29.8 in /  1010.0 hPa NE 5.8 mph /  9.3 km/h 5.8 mph /  9.3 km/h 76 % 0 in /  0.0 mm
Meteo Sesrovires
Elogis d' Weather Underground - 3.75 mb

Guio original per  Jim McMurry - jmcmurry@mwt.net Adaptat per a la plantilla per  Wim van der Kuil - Leuven-Template.eu

Trobareu la nostra informacio del temps tambe a:

Weather Underground

AWEKAS